createdAt,value
2018-05-14T00:01:27.190Z,94369.75
2018-05-14T00:03:55.663Z,94363.98
2018-05-14T00:06:24.075Z,94362.38
2018-05-14T00:08:52.543Z,94353.86
2018-05-14T00:11:20.935Z,94359.30
2018-05-14T00:13:49.347Z,94359.77
2018-05-14T00:16:17.827Z,94360.42
2018-05-14T00:18:46.246Z,94362.77
2018-05-14T00:21:14.682Z,94357.80
2018-05-14T00:23:43.150Z,94346.88
2018-05-14T00:26:11.657Z,94352.11
2018-05-14T00:28:40.184Z,94352.64
2018-05-14T00:31:08.604Z,94351.84
2018-05-14T00:33:37.046Z,94360.28
2018-05-14T00:36:05.552Z,94356.34
2018-05-14T00:38:33.968Z,94348.64
2018-05-14T00:41:02.417Z,94349.93
2018-05-14T00:43:30.854Z,94353.85
2018-05-14T00:45:59.271Z,94350.05
2018-05-14T00:48:27.729Z,94345.44
2018-05-14T00:50:56.183Z,94351.69
2018-05-14T00:53:24.647Z,94354.61
2018-05-14T00:55:53.107Z,94354.72
2018-05-14T00:58:21.504Z,94358.43
2018-05-14T01:00:50.040Z,94346.89
2018-05-14T01:03:18.447Z,94345.41
2018-05-14T01:05:46.924Z,94345.74
2018-05-14T01:08:15.353Z,94348.95
2018-05-14T01:10:43.850Z,94343.81
2018-05-14T01:13:12.307Z,94344.47
2018-05-14T01:15:40.788Z,94326.25
2018-05-14T01:18:09.224Z,94342.17
2018-05-14T01:20:37.659Z,94344.50
2018-05-14T01:23:06.057Z,94344.59
2018-05-14T01:25:34.498Z,94348.24
2018-05-14T01:28:02.992Z,94347.23
2018-05-14T01:30:31.465Z,94349.16
2018-05-14T01:32:59.865Z,94344.11
2018-05-14T01:35:28.541Z,94341.97
2018-05-14T01:37:56.933Z,94352.83
2018-05-14T01:40:25.381Z,94354.46
2018-05-14T01:42:53.769Z,94350.28
2018-05-14T01:45:22.228Z,94343.06
2018-05-14T01:47:50.632Z,94345.33
2018-05-14T01:50:19.092Z,94344.43
2018-05-14T01:52:47.492Z,94338.97
2018-05-14T01:55:15.966Z,94341.34
2018-05-14T01:57:44.378Z,94344.47
2018-05-14T02:00:12.822Z,94340.64
2018-05-14T02:02:41.240Z,94342.78
2018-05-14T02:05:09.684Z,94345.20
2018-05-14T02:07:38.092Z,94342.61
2018-05-14T02:10:06.515Z,94345.46
2018-05-14T02:12:34.951Z,94241.92
2018-05-14T02:15:03.513Z,94340.91
2018-05-14T02:17:31.957Z,94340.30
2018-05-14T02:20:00.367Z,94340.72
2018-05-14T02:22:28.855Z,94340.01
2018-05-14T02:24:57.260Z,94346.83
2018-05-14T02:27:25.704Z,94342.11
2018-05-14T02:29:54.165Z,94339.62
2018-05-14T02:32:22.600Z,94342.38
2018-05-14T02:34:51.051Z,94338.44
2018-05-14T02:37:19.494Z,94343.84
2018-05-14T02:39:47.909Z,94342.52
2018-05-14T02:42:16.364Z,94343.43
2018-05-14T02:44:44.788Z,94354.65
2018-05-14T02:47:13.225Z,94354.34
2018-05-14T02:49:41.652Z,94353.30
2018-05-14T02:52:10.108Z,94311.06
2018-05-14T02:54:38.576Z,94356.86
2018-05-14T02:57:07.008Z,94348.86
2018-05-14T02:59:35.466Z,94355.55
2018-05-14T03:02:03.928Z,94363.66
2018-05-14T03:04:32.340Z,94363.11
2018-05-14T03:07:00.747Z,94366.11
2018-05-14T03:09:29.157Z,94366.89
2018-05-14T03:11:57.704Z,94365.72
2018-05-14T03:14:26.145Z,94363.34
2018-05-14T03:16:54.595Z,94366.03
2018-05-14T03:19:23.028Z,94370.72
2018-05-14T03:21:51.436Z,94372.66
2018-05-14T03:24:19.873Z,94380.86
2018-05-14T03:26:48.322Z,94375.02
2018-05-14T03:29:16.750Z,94372.22
2018-05-14T03:31:45.197Z,94376.97
2018-05-14T03:34:13.715Z,94355.23
2018-05-14T03:36:42.115Z,94373.70
2018-05-14T03:39:10.534Z,94383.69
2018-05-14T03:41:39.010Z,94384.16
2018-05-14T03:44:07.450Z,94382.52
2018-05-14T03:46:35.919Z,94381.73
2018-05-14T03:49:04.339Z,94380.57
2018-05-14T03:51:32.827Z,94383.41
2018-05-14T03:54:01.257Z,94380.97
2018-05-14T03:56:29.651Z,94388.94
2018-05-14T03:59:10.209Z,94384.13
2018-05-14T04:01:50.375Z,94372.26
2018-05-14T04:04:30.623Z,94383.43
2018-05-14T04:06:59.066Z,94382.58
2018-05-14T04:09:27.540Z,94386.03
2018-05-14T04:11:56.894Z,94389.77
2018-05-14T04:14:25.423Z,94389.93
2018-05-14T04:16:53.857Z,94387.48
2018-05-14T04:19:22.267Z,94394.84
2018-05-14T04:21:50.759Z,94395.75
2018-05-14T04:24:19.226Z,94424.82
2018-05-14T04:26:47.640Z,94407.55
2018-05-14T04:29:16.078Z,94411.97
2018-05-14T04:31:44.564Z,94390.45
2018-05-14T04:34:13.022Z,94413.32
2018-05-14T04:36:41.495Z,94417.92
2018-05-14T04:39:09.982Z,94408.73
2018-05-14T04:41:38.523Z,94417.77
2018-05-14T04:44:06.979Z,94423.18
2018-05-14T04:46:35.383Z,94425.91
2018-05-14T04:49:03.840Z,94434.66
2018-05-14T04:51:32.297Z,94429.92
2018-05-14T04:54:00.800Z,94437.13
2018-05-14T04:56:29.248Z,94437.19
2018-05-14T04:58:57.666Z,94437.62
2018-05-14T05:01:26.135Z,94441.29
2018-05-14T05:03:54.611Z,94445.63
2018-05-14T05:06:23.149Z,94442.91
2018-05-14T05:08:51.615Z,94442.27
2018-05-14T05:11:20.008Z,94450.77
2018-05-14T05:13:48.726Z,94449.91
2018-05-14T05:16:17.173Z,94451.22
2018-05-14T05:18:45.639Z,94453.58
2018-05-14T05:21:14.153Z,94453.25
2018-05-14T05:23:42.571Z,94454.87
2018-05-14T05:26:11.040Z,94430.80
2018-05-14T05:28:39.511Z,94451.42
2018-05-14T05:31:07.953Z,94451.24
2018-05-14T05:33:36.367Z,94452.19
2018-05-14T05:36:04.836Z,94452.23
2018-05-14T05:38:33.290Z,94452.96
2018-05-14T05:41:01.716Z,94450.39
2018-05-14T05:43:30.220Z,94463.18
2018-05-14T05:45:58.776Z,94463.64
2018-05-14T05:48:27.201Z,94461.20
2018-05-14T05:50:55.608Z,94466.52
2018-05-14T05:53:24.072Z,94461.73
2018-05-14T05:55:52.528Z,94470.59
2018-05-14T05:58:21.007Z,94470.34
2018-05-14T06:00:49.659Z,94465.53
2018-05-14T06:03:18.059Z,94468.19
2018-05-14T06:05:46.452Z,94466.45
2018-05-14T06:08:14.924Z,94466.30
2018-05-14T06:10:43.328Z,94470.58
2018-05-14T06:13:11.796Z,94460.02
2018-05-14T06:15:40.227Z,94461.84
2018-05-14T06:18:08.634Z,94456.48
2018-05-14T06:20:37.089Z,94464.51
2018-05-14T06:23:05.602Z,94454.58
2018-05-14T06:25:34.038Z,94457.57
2018-05-14T06:28:02.516Z,94457.28
2018-05-14T06:30:30.940Z,94455.36
2018-05-14T06:32:59.389Z,94449.59
2018-05-14T06:35:27.829Z,94453.69
2018-05-14T06:37:56.697Z,94457.40
2018-05-14T06:40:24.950Z,94453.95
2018-05-14T06:42:53.403Z,94452.77
2018-05-14T06:45:21.823Z,94457.63
2018-05-14T06:47:50.305Z,94455.45
2018-05-14T06:50:18.827Z,94454.81
2018-05-14T06:52:47.308Z,94456.08
2018-05-14T06:55:15.797Z,94452.02
2018-05-14T06:57:44.278Z,94459.02
2018-05-14T07:00:12.727Z,94457.78
2018-05-14T07:02:41.208Z,94451.73
2018-05-14T07:05:09.612Z,94448.85
2018-05-14T07:07:38.071Z,94450.28
2018-05-14T07:10:06.443Z,94442.73
2018-05-14T07:12:34.903Z,94447.91
2018-05-14T07:15:03.366Z,94454.38
2018-05-14T07:17:31.849Z,94455.58
2018-05-14T07:20:00.303Z,94453.17
2018-05-14T07:22:28.703Z,94461.83
2018-05-14T07:24:57.143Z,94460.50
2018-05-14T07:27:25.558Z,94458.91
2018-05-14T07:29:54.029Z,94458.98
2018-05-14T07:32:22.449Z,94455.72
2018-05-14T07:34:50.920Z,94455.73
2018-05-14T07:37:19.350Z,94460.25
2018-05-14T07:39:48.159Z,94459.37
2018-05-14T07:42:16.621Z,94464.66
2018-05-14T07:44:45.123Z,94453.59
2018-05-14T07:47:13.585Z,94451.81
2018-05-14T07:49:42.025Z,94456.76
2018-05-14T07:52:10.478Z,94455.48
2018-05-14T07:54:38.936Z,94466.98
2018-05-14T07:57:07.415Z,94477.99
2018-05-14T07:59:35.818Z,94471.82
2018-05-14T08:02:04.293Z,94475.84
2018-05-14T08:04:32.759Z,94471.36
2018-05-14T08:07:01.226Z,94468.03
2018-05-14T08:09:29.680Z,94460.37
2018-05-14T08:11:58.267Z,94466.38
2018-05-14T08:14:26.708Z,94461.27
2018-05-14T08:16:55.174Z,94461.61
2018-05-14T08:19:23.639Z,94457.70
2018-05-14T08:21:52.081Z,94463.37
2018-05-14T08:24:20.523Z,94463.38
2018-05-14T08:26:48.987Z,94464.41
2018-05-14T08:29:17.524Z,94460.52
2018-05-14T08:31:45.967Z,94465.22
2018-05-14T08:34:14.472Z,94465.54
2018-05-14T08:36:43.319Z,94467.52
2018-05-14T08:39:11.706Z,94454.09
2018-05-14T08:41:40.123Z,94452.73
2018-05-14T08:44:08.859Z,94448.98
2018-05-14T08:46:37.263Z,94446.95
2018-05-14T08:49:05.665Z,94444.87
2018-05-14T08:51:34.516Z,94413.73
2018-05-14T08:54:02.967Z,94434.03
2018-05-14T08:56:31.422Z,94437.68
2018-05-14T08:58:59.863Z,94435.42
2018-05-14T09:01:29.170Z,94446.13
2018-05-14T09:03:57.551Z,94439.81
2018-05-14T09:06:27.142Z,94440.91
2018-05-14T09:08:55.532Z,94440.45
2018-05-14T09:11:23.920Z,94444.97
2018-05-14T09:13:52.682Z,94451.59
2018-05-14T09:16:21.095Z,94451.28
2018-05-14T09:18:49.475Z,94446.77
2018-05-14T09:21:18.254Z,94436.47
2018-05-14T09:23:46.633Z,94423.42
2018-05-14T09:26:15.016Z,94426.48
2018-05-14T09:28:44.074Z,94418.93
2018-05-14T09:31:12.923Z,94430.84
2018-05-14T09:33:41.732Z,94415.33
2018-05-14T09:36:10.551Z,94426.84
2018-05-14T09:38:38.929Z,94417.92
2018-05-14T09:41:07.344Z,94420.23
2018-05-14T09:43:36.000Z,94429.49
2018-05-14T09:46:04.418Z,94422.64
2018-05-14T09:48:32.842Z,94420.63
2018-05-14T09:51:01.651Z,94411.80
2018-05-14T09:53:30.077Z,94417.84
2018-05-14T09:55:58.451Z,94412.38
2018-05-14T09:58:27.234Z,94418.59
2018-05-14T10:00:55.631Z,94402.98
2018-05-14T10:03:24.019Z,94424.39
2018-05-14T10:05:52.812Z,94403.45
2018-05-14T10:08:21.198Z,94420.11
2018-05-14T10:10:49.619Z,94430.42
2018-05-14T10:13:18.403Z,94430.55
2018-05-14T10:15:46.795Z,94427.16
2018-05-14T10:18:15.191Z,94419.41
2018-05-14T10:20:43.755Z,94428.47
2018-05-14T10:23:12.158Z,94438.28
2018-05-14T10:25:40.547Z,94438.38
2018-05-14T10:28:09.291Z,94446.18
2018-05-14T10:30:37.688Z,94446.98
2018-05-14T10:33:06.080Z,94442.82
2018-05-14T10:35:34.940Z,94446.00
2018-05-14T10:38:03.340Z,94436.92
2018-05-14T10:40:31.744Z,94433.37
2018-05-14T10:43:00.495Z,94436.28
2018-05-14T10:45:28.906Z,94458.09
2018-05-14T10:47:57.357Z,94449.47
2018-05-14T10:50:26.162Z,94451.83
2018-05-14T10:52:54.644Z,94448.55
2018-05-14T10:55:23.034Z,94458.61
2018-05-14T10:57:51.803Z,94460.37
2018-05-14T11:00:20.215Z,94465.83
2018-05-14T11:02:48.603Z,94469.60
2018-05-14T11:05:17.342Z,94468.02
2018-05-14T11:07:45.739Z,94470.80
2018-05-14T11:10:14.267Z,94476.57
2018-05-14T11:12:43.113Z,94475.92
2018-05-14T11:15:11.530Z,94486.99
2018-05-14T11:17:39.955Z,94489.45
2018-05-14T11:20:08.647Z,94487.91
2018-05-14T11:22:37.059Z,94487.30
2018-05-14T11:25:05.574Z,94501.09
2018-05-14T11:27:34.491Z,94501.45
2018-05-14T11:30:02.847Z,94509.87
2018-05-14T11:32:31.280Z,94504.14
2018-05-14T11:34:59.909Z,94492.88
2018-05-14T11:37:28.300Z,94518.59
2018-05-14T11:39:56.721Z,94525.20
2018-05-14T11:42:25.404Z,94512.86
2018-05-14T11:44:53.795Z,94497.53
2018-05-14T11:47:22.198Z,94473.94
2018-05-14T11:49:51.044Z,94471.38
2018-05-14T11:52:19.448Z,94450.61
2018-05-14T11:54:47.968Z,94467.09
2018-05-14T11:57:16.719Z,94467.61
2018-05-14T11:59:45.139Z,94460.37
2018-05-14T12:02:13.519Z,94455.41
2018-05-14T12:04:42.148Z,94449.93
2018-05-14T12:07:10.544Z,94452.07
2018-05-14T12:09:39.017Z,94443.72
2018-05-14T12:12:07.497Z,94435.49
2018-05-14T12:14:35.880Z,94432.83
2018-05-14T12:17:04.276Z,94421.76
2018-05-14T12:19:33.017Z,94431.36
2018-05-14T12:22:01.436Z,94405.09
2018-05-14T12:24:29.853Z,94424.36
2018-05-14T12:26:58.475Z,94416.72
2018-05-14T12:29:26.905Z,94414.59
2018-05-14T12:31:55.319Z,94421.52
2018-05-14T12:34:23.744Z,94417.64
2018-05-14T12:36:52.127Z,94414.79
2018-05-14T12:39:20.523Z,94406.47
2018-05-14T12:41:49.231Z,94402.28
2018-05-14T12:44:17.636Z,94405.16
2018-05-14T12:46:46.064Z,94408.21
2018-05-14T12:49:14.844Z,94401.91
2018-05-14T12:51:43.328Z,94394.56
2018-05-14T12:54:11.721Z,94398.42
2018-05-14T12:56:40.227Z,94403.66
2018-05-14T12:59:08.624Z,94403.09
2018-05-14T13:01:37.039Z,94411.09
2018-05-14T13:04:05.815Z,94407.40
2018-05-14T13:06:34.199Z,94404.44
2018-05-14T13:09:02.601Z,94396.12
2018-05-14T13:11:31.127Z,94400.80
2018-05-14T13:13:59.546Z,94397.81
2018-05-14T13:16:28.653Z,94393.91
2018-05-14T13:18:57.823Z,94385.96
2018-05-14T13:21:26.676Z,94390.67
2018-05-14T13:23:55.144Z,94387.76
2018-05-14T13:26:23.681Z,94378.97
2018-05-14T13:28:52.201Z,94356.75
2018-05-14T13:31:20.670Z,94368.05
2018-05-14T13:33:49.331Z,94368.75
2018-05-14T13:36:17.737Z,94370.11
2018-05-14T13:38:46.151Z,94370.48
2018-05-14T13:41:14.939Z,94363.70
2018-05-14T13:43:43.344Z,94350.91
2018-05-14T13:46:11.758Z,94356.97
2018-05-14T13:48:40.431Z,94351.88
2018-05-14T13:51:08.967Z,94356.70
2018-05-14T13:53:37.383Z,94358.32
2018-05-14T13:56:05.854Z,94357.95
2018-05-14T13:58:34.304Z,94350.80
2018-05-14T14:01:02.722Z,94351.75
2018-05-14T14:03:31.526Z,94360.30
2018-05-14T14:05:59.914Z,94359.24
2018-05-14T14:08:28.289Z,94355.41
2018-05-14T14:10:57.086Z,94373.55
2018-05-14T14:13:25.524Z,94371.15
2018-05-14T14:15:53.959Z,94381.73
2018-05-14T14:18:22.396Z,94380.38
2018-05-14T14:20:50.784Z,94383.57
2018-05-14T14:23:19.299Z,94378.00
2018-05-14T14:25:47.979Z,94383.98
2018-05-14T14:28:16.383Z,94386.06
2018-05-14T14:30:45.612Z,94387.29
2018-05-14T14:33:14.251Z,94388.80
2018-05-14T14:35:42.654Z,94389.74
2018-05-14T14:38:11.060Z,94399.15
2018-05-14T14:40:39.816Z,94394.56
2018-05-14T14:43:08.287Z,94391.61
2018-05-14T14:45:36.705Z,94396.83
2018-05-14T14:48:05.461Z,94405.34
2018-05-14T14:50:33.853Z,94404.80
2018-05-14T14:53:02.328Z,94414.99
2018-05-14T14:55:30.979Z,94375.83
2018-05-14T14:57:59.374Z,94394.58
2018-05-14T15:00:27.761Z,94396.11
2018-05-14T15:02:56.196Z,94394.90
2018-05-14T15:05:24.689Z,94396.49
2018-05-14T15:07:53.075Z,94391.48
2018-05-14T15:10:21.679Z,94390.91
2018-05-14T15:12:50.078Z,94387.70
2018-05-14T15:15:18.460Z,94393.48
2018-05-14T15:17:47.124Z,94383.97
2018-05-14T15:20:15.623Z,94385.56
2018-05-14T15:22:44.032Z,94384.31
2018-05-14T15:25:12.664Z,94385.65
2018-05-14T15:27:41.112Z,94385.50
2018-05-14T15:30:09.562Z,94386.25
2018-05-14T15:32:38.208Z,94382.63
2018-05-14T15:35:06.595Z,94385.66
2018-05-14T15:37:34.996Z,94382.28
2018-05-14T15:40:03.780Z,94354.39
2018-05-14T15:42:32.312Z,94388.18
2018-05-14T15:45:00.736Z,94392.40
2018-05-14T15:47:29.194Z,94387.90
2018-05-14T15:49:57.813Z,94385.95
2018-05-14T15:52:26.226Z,94374.63
2018-05-14T15:54:54.981Z,94354.57
2018-05-14T15:57:23.366Z,94375.95
2018-05-14T15:59:51.769Z,94372.34
2018-05-14T16:02:20.515Z,94353.91
2018-05-14T16:04:48.936Z,94366.03
2018-05-14T16:07:17.389Z,94367.22
2018-05-14T16:09:45.900Z,94363.78
2018-05-14T16:12:14.292Z,94371.28
2018-05-14T16:14:42.750Z,94360.89
2018-05-14T16:17:11.512Z,94372.98
2018-05-14T16:19:39.920Z,94378.59
2018-05-14T16:22:08.323Z,94371.98
2018-05-14T16:24:36.955Z,94375.45
2018-05-14T16:27:05.347Z,94379.23
2018-05-14T16:29:33.775Z,94389.50
2018-05-14T16:32:02.427Z,94390.02
2018-05-14T16:34:30.831Z,94381.23
2018-05-14T16:36:59.247Z,94390.27
2018-05-14T16:39:28.152Z,94388.98
2018-05-14T16:41:56.694Z,94375.31
2018-05-14T16:44:25.058Z,94382.50
2018-05-14T16:46:53.577Z,94390.23
2018-05-14T16:49:22.010Z,94379.35
2018-05-14T16:51:50.415Z,94370.13
2018-05-14T16:54:19.206Z,94391.45
2018-05-14T16:56:47.633Z,94387.89
2018-05-14T16:59:16.117Z,94396.30
2018-05-14T17:01:45.131Z,94392.19
2018-05-14T17:04:13.656Z,94396.45
2018-05-14T17:06:42.024Z,94397.19
2018-05-14T17:09:10.859Z,94404.57
2018-05-14T17:11:39.312Z,94406.47
2018-05-14T17:14:07.820Z,94415.41
2018-05-14T17:16:36.608Z,94411.73
2018-05-14T17:19:05.008Z,94406.92
2018-05-14T17:21:33.446Z,94415.66
2018-05-14T17:24:01.886Z,94421.79
2018-05-14T17:26:30.392Z,94426.20
2018-05-14T17:28:58.747Z,94438.78
2018-05-14T17:31:27.403Z,94442.75
2018-05-14T17:33:55.788Z,94451.22
2018-05-14T17:36:24.242Z,94467.00
2018-05-14T17:38:52.965Z,94468.24
2018-05-14T17:41:21.403Z,94475.23
2018-05-14T17:43:49.800Z,94467.80
2018-05-14T17:46:18.570Z,94479.56
2018-05-14T17:48:47.025Z,94474.72
2018-05-14T17:51:15.445Z,94476.69
2018-05-14T17:53:43.889Z,94475.99
2018-05-14T17:56:12.296Z,94481.57
2018-05-14T17:58:40.711Z,94490.27
2018-05-14T18:01:09.470Z,94496.30
2018-05-14T18:03:37.903Z,94493.27
2018-05-14T18:06:06.314Z,94497.02
2018-05-14T18:08:35.147Z,94503.02
2018-05-14T18:11:03.610Z,94508.94
2018-05-14T18:13:32.020Z,94506.81
2018-05-14T18:16:00.868Z,94507.75
2018-05-14T18:18:29.284Z,94514.81
2018-05-14T18:21:00.516Z,94527.34
2018-05-14T18:23:29.332Z,94538.22
2018-05-14T18:26:18.439Z,94537.09
2018-05-14T18:28:49.951Z,94538.89
2018-05-14T18:31:24.030Z,94538.52
2018-05-14T18:33:54.415Z,94540.52
2018-05-14T18:36:22.833Z,94545.19
2018-05-14T18:38:51.253Z,94545.13
2018-05-14T18:41:20.336Z,94544.55
2018-05-14T18:43:48.729Z,94550.91
2018-05-14T18:46:17.125Z,94549.64
2018-05-14T18:48:45.915Z,94560.42
2018-05-14T18:51:14.374Z,94552.06
2018-05-14T18:53:42.782Z,94547.44
2018-05-14T18:56:11.527Z,94562.95
2018-05-14T18:58:39.928Z,94558.98
2018-05-14T19:01:08.452Z,94561.30
2018-05-14T19:03:37.294Z,94574.08
2018-05-14T19:06:05.727Z,94571.21
2018-05-14T19:08:34.126Z,94561.73
2018-05-14T19:11:08.358Z,94565.03
2018-05-14T19:13:36.751Z,94570.52
2018-05-14T19:16:10.819Z,94568.16
2018-05-14T19:18:39.319Z,94570.97
2018-05-14T19:21:07.706Z,94579.27
2018-05-14T19:23:41.782Z,94577.56
2018-05-14T19:26:10.198Z,94576.68
2018-05-14T19:28:44.727Z,94577.81
2018-05-14T19:31:13.136Z,94577.30
2018-05-14T19:33:47.410Z,94576.31
2018-05-14T19:36:15.798Z,94572.31
2018-05-14T19:38:44.198Z,94569.89
2018-05-14T19:41:12.694Z,94576.09
2018-05-14T19:43:41.114Z,94573.88
2018-05-14T19:46:09.519Z,94576.91
2018-05-14T19:48:38.066Z,94580.11
2018-05-14T19:51:06.467Z,94565.03
2018-05-14T19:53:34.879Z,94581.20
2018-05-14T19:56:03.989Z,94578.87
2018-05-14T19:58:32.411Z,94559.64
2018-05-14T20:01:00.946Z,94583.41
2018-05-14T20:03:29.789Z,94575.17
2018-05-14T20:08:31.923Z,94584.67
2018-05-14T20:11:00.346Z,94582.63
2018-05-14T20:13:28.771Z,94585.91
2018-05-14T20:15:57.685Z,94595.66
2018-05-14T20:18:26.137Z,94592.94
2018-05-14T20:20:54.685Z,94594.83
2018-05-14T20:23:23.339Z,94598.95
2018-05-14T20:25:51.755Z,94597.03
2018-05-14T20:28:20.170Z,94587.91
2018-05-14T20:30:48.966Z,94592.13
2018-05-14T20:33:17.399Z,94592.86
2018-05-14T20:35:45.804Z,94594.98
2018-05-14T20:38:14.946Z,94599.27
2018-05-14T20:40:43.364Z,94588.27
2018-05-14T20:43:11.804Z,94589.17
2018-05-14T20:45:40.685Z,94588.89
2018-05-14T20:48:09.089Z,94587.64
2018-05-14T20:50:37.548Z,94581.98
2018-05-14T20:53:06.436Z,94581.83
2018-05-14T20:55:34.831Z,94581.23
2018-05-14T20:58:03.281Z,94583.98
2018-05-14T21:00:32.084Z,94592.09
2018-05-14T21:03:00.519Z,94592.38
2018-05-14T21:05:28.957Z,94587.48
2018-05-14T21:07:57.848Z,94582.55
2018-05-14T21:10:26.256Z,94583.67
2018-05-14T21:12:54.971Z,94584.03
2018-05-14T21:15:23.681Z,94584.78
2018-05-14T21:17:52.071Z,94575.88
2018-05-14T21:20:20.459Z,94571.41
2018-05-14T21:22:49.229Z,94557.95
2018-05-14T21:25:17.659Z,94565.48
2018-05-14T21:27:46.074Z,94567.80
2018-05-14T21:30:14.699Z,94567.14
2018-05-14T21:32:43.134Z,94564.51
2018-05-14T21:35:11.540Z,94563.33
2018-05-14T21:37:40.078Z,94555.07
2018-05-14T21:40:08.459Z,94561.77
2018-05-14T21:42:36.902Z,94559.37
2018-05-14T21:45:05.552Z,94557.83
2018-05-14T21:47:33.981Z,94569.10
2018-05-14T21:50:02.427Z,94547.89
2018-05-14T21:52:30.951Z,94566.77
2018-05-14T21:54:59.379Z,94567.02
2018-05-14T21:57:27.774Z,94569.34
2018-05-14T21:59:56.200Z,94570.64
2018-05-14T22:02:24.631Z,94565.14
2018-05-14T22:04:53.037Z,94561.09
2018-05-14T22:07:21.726Z,94559.74
2018-05-14T22:09:50.161Z,94570.14
2018-05-14T22:12:18.658Z,94570.30
2018-05-14T22:14:47.480Z,94568.61
2018-05-14T22:17:15.870Z,94579.20
2018-05-14T22:19:44.363Z,94593.67
2018-05-14T22:22:12.746Z,94573.70
2018-05-14T22:24:41.164Z,94579.16
2018-05-14T22:27:09.620Z,94588.36
2018-05-14T22:29:38.106Z,94589.92
2018-05-14T22:32:06.516Z,94588.20
2018-05-14T22:34:34.925Z,94585.34
2018-05-14T22:37:03.684Z,94576.08
2018-05-14T22:39:32.102Z,94587.09
2018-05-14T22:42:00.545Z,94595.44
2018-05-14T22:44:29.354Z,94589.48
2018-05-14T22:46:57.758Z,94595.30
2018-05-14T22:49:26.166Z,94604.34
2018-05-14T22:51:55.013Z,94601.38
2018-05-14T22:54:35.298Z,94603.19
2018-05-14T22:57:04.120Z,94595.98
2018-05-14T22:59:32.547Z,94591.83
2018-05-14T23:02:00.971Z,94590.09
2018-05-14T23:04:29.424Z,94597.43
2018-05-14T23:06:57.857Z,94595.09
2018-05-14T23:09:26.270Z,94605.14
2018-05-14T23:11:54.953Z,94603.31
2018-05-14T23:14:23.349Z,94607.84
2018-05-14T23:16:51.760Z,94583.66
2018-05-14T23:19:20.600Z,94595.52
2018-05-14T23:21:49.004Z,94600.48
2018-05-14T23:24:17.421Z,94593.91
2018-05-14T23:26:46.039Z,94601.86
2018-05-14T23:29:14.442Z,94598.69
2018-05-14T23:31:42.849Z,94599.59
2018-05-14T23:34:11.796Z,94599.07
2018-05-14T23:36:40.207Z,94600.78
2018-05-14T23:39:08.634Z,94602.78
2018-05-14T23:41:37.351Z,94605.69
2018-05-14T23:44:05.764Z,94600.92
2018-05-14T23:46:34.211Z,94599.38
2018-05-14T23:49:02.809Z,94602.34
2018-05-14T23:51:31.203Z,94594.67
2018-05-14T23:53:59.619Z,94595.20
2018-05-14T23:56:28.379Z,94589.09
2018-05-14T23:58:56.778Z,94577.50
